createdAt,value
2023-03-22T00:02:26.895Z,7.83
2023-03-22T00:04:55.409Z,3.20
2023-03-22T00:07:23.849Z,3.13
2023-03-22T00:09:52.237Z,2.60
2023-03-22T00:12:20.582Z,13.60
2023-03-22T00:14:50.246Z,4.05
2023-03-22T00:17:19.273Z,2.80
2023-03-22T00:19:48.258Z,3.95
2023-03-22T00:22:17.537Z,2.30
2023-03-22T00:24:45.936Z,3.17
2023-03-22T00:27:14.613Z,7.60
2023-03-22T00:29:43.195Z,3.63
2023-03-22T00:32:11.591Z,4.43
2023-03-22T00:34:39.976Z,4.60
2023-03-22T00:37:08.910Z,4.27
2023-03-22T00:39:37.284Z,3.03
2023-03-22T00:42:07.044Z,3.80
2023-03-22T00:44:35.484Z,3.10
2023-03-22T00:47:04.390Z,4.60
2023-03-22T00:49:32.722Z,2.60
2023-03-22T00:52:01.229Z,4.10
2023-03-22T00:54:29.607Z,3.97
2023-03-22T00:56:57.971Z,4.60
2023-03-22T00:59:26.602Z,3.73
2023-03-22T01:01:56.088Z,3.23
2023-03-22T01:04:26.746Z,4.23
2023-03-22T01:07:02.075Z,4.47
2023-03-22T01:09:34.429Z,3.87
2023-03-22T01:12:03.523Z,7.50
2023-03-22T01:14:32.623Z,2.97
2023-03-22T01:17:01.133Z,3.20
2023-03-22T01:19:29.557Z,4.33
2023-03-22T01:21:58.591Z,4.30
2023-03-22T01:24:27.035Z,4.80
2023-03-22T01:26:55.478Z,6.70
2023-03-22T01:29:24.583Z,5.43
2023-03-22T01:31:53.497Z,3.50
2023-03-22T01:34:23.066Z,4.47
2023-03-22T01:36:51.756Z,3.30
2023-03-22T01:39:20.307Z,4.00
2023-03-22T01:41:48.712Z,5.90
2023-03-22T01:44:22.443Z,6.13
2023-03-22T01:46:52.398Z,3.30
2023-03-22T01:49:35.420Z,4.97
2023-03-22T01:52:12.194Z,4.20
2023-03-22T01:54:47.689Z,5.07
2023-03-22T01:57:16.626Z,4.63
2023-03-22T01:59:45.822Z,7.73
2023-03-22T02:02:21.201Z,7.30
2023-03-22T02:04:58.638Z,4.22
2023-03-22T02:07:28.036Z,4.18
2023-03-22T02:09:56.656Z,4.90
2023-03-22T02:12:52.694Z,6.57
2023-03-22T02:15:32.604Z,4.80
2023-03-22T02:18:28.000Z,5.53
2023-03-22T02:21:11.601Z,4.83
2023-03-22T02:24:07.511Z,5.50
2023-03-22T02:27:05.684Z,4.13
2023-03-22T02:29:48.303Z,5.30
2023-03-22T02:32:19.447Z,8.87
2023-03-22T02:35:06.178Z,4.50
2023-03-22T02:37:52.947Z,5.90
2023-03-22T02:40:40.029Z,10.43
2023-03-22T02:43:21.445Z,7.60
2023-03-22T02:45:52.868Z,4.60
2023-03-22T02:48:37.277Z,6.57
2023-03-22T02:51:14.781Z,4.90
2023-03-22T02:54:12.397Z,6.27
2023-03-22T02:56:54.700Z,8.27
2023-03-22T02:59:24.707Z,6.53
2023-03-22T03:02:00.068Z,4.70
2023-03-22T03:04:42.394Z,9.33
2023-03-22T03:07:15.210Z,7.67
2023-03-22T03:09:44.891Z,6.90
2023-03-22T03:12:28.032Z,6.50
2023-03-22T03:14:57.144Z,6.37
2023-03-22T03:18:04.165Z,5.83
2023-03-22T03:21:01.331Z,5.32
2023-03-22T03:23:29.662Z,6.40
2023-03-22T03:26:07.936Z,4.43
2023-03-22T03:28:52.257Z,7.40
2023-03-22T03:31:38.337Z,7.60
2023-03-22T03:34:36.279Z,5.70
2023-03-22T03:37:15.745Z,9.87
2023-03-22T03:40:09.278Z,7.40
2023-03-22T03:42:41.074Z,8.67
2023-03-22T03:45:10.961Z,7.10
2023-03-22T03:47:40.288Z,6.77
2023-03-22T03:50:09.634Z,7.10
2023-03-22T03:52:37.996Z,6.27
2023-03-22T03:55:06.915Z,9.00
2023-03-22T03:57:35.375Z,8.57
2023-03-22T04:00:05.025Z,7.22
2023-03-22T04:02:33.944Z,10.50
2023-03-22T04:05:02.386Z,7.70
2023-03-22T04:07:30.753Z,7.20
2023-03-22T04:09:59.150Z,12.80
2023-03-22T04:12:27.575Z,6.37
2023-03-22T04:14:56.786Z,10.35
2023-03-22T04:17:26.442Z,9.68
2023-03-22T04:19:57.305Z,7.33
2023-03-22T04:22:26.404Z,10.23
2023-03-22T04:24:54.878Z,8.63
2023-03-22T04:27:23.447Z,10.50
2023-03-22T04:29:51.950Z,7.20
2023-03-22T04:32:23.738Z,5.97
2023-03-22T04:34:53.352Z,7.60
2023-03-22T04:37:25.339Z,8.53
2023-03-22T04:39:54.041Z,6.83
2023-03-22T04:42:22.435Z,9.33
2023-03-22T04:44:51.157Z,7.57
2023-03-22T04:47:19.867Z,9.30
2023-03-22T04:49:48.224Z,12.20
2023-03-22T04:52:16.956Z,13.60
2023-03-22T04:54:45.302Z,15.07
2023-03-22T04:57:13.863Z,15.33
2023-03-22T04:59:42.462Z,14.47
2023-03-22T05:02:11.087Z,12.60
2023-03-22T05:04:39.431Z,13.10
2023-03-22T05:07:07.920Z,12.10
2023-03-22T05:09:36.666Z,13.40
2023-03-22T05:12:05.096Z,11.37
2023-03-22T05:14:33.766Z,10.73
2023-03-22T05:17:02.207Z,14.97
2023-03-22T05:19:30.614Z,12.97
2023-03-22T05:22:02.661Z,12.70
2023-03-22T05:24:32.385Z,10.10
2023-03-22T05:27:01.783Z,10.90
2023-03-22T05:29:30.187Z,9.20
2023-03-22T05:31:58.562Z,10.60
2023-03-22T05:34:36.192Z,9.70
2023-03-22T05:37:05.378Z,9.77
2023-03-22T05:39:34.148Z,9.70
2023-03-22T05:42:02.685Z,7.00
2023-03-22T05:44:31.092Z,10.50
2023-03-22T05:46:59.549Z,8.90
2023-03-22T05:49:28.105Z,7.87
2023-03-22T05:51:56.749Z,8.83
2023-03-22T05:54:25.228Z,8.83
2023-03-22T05:56:55.671Z,9.77
2023-03-22T05:59:24.161Z,12.63
2023-03-22T06:01:52.738Z,9.45
2023-03-22T06:04:21.901Z,9.40
2023-03-22T06:06:51.213Z,12.63
2023-03-22T06:09:19.551Z,10.00
2023-03-22T06:11:48.006Z,10.93
2023-03-22T06:14:16.698Z,11.23
2023-03-22T06:16:45.088Z,11.13
2023-03-22T06:19:13.550Z,9.10
2023-03-22T06:21:42.097Z,11.38
2023-03-22T06:24:11.002Z,13.00
2023-03-22T06:26:39.390Z,9.38
2023-03-22T06:29:07.810Z,9.48
2023-03-22T06:31:36.195Z,11.23
2023-03-22T06:34:05.010Z,14.60
2023-03-22T06:36:33.611Z,12.93
2023-03-22T06:39:03.502Z,11.30
2023-03-22T06:41:32.091Z,13.43
2023-03-22T06:44:00.458Z,12.97
2023-03-22T06:46:28.838Z,13.33
2023-03-22T06:48:57.321Z,15.97
2023-03-22T06:51:25.819Z,13.80
2023-03-22T06:53:54.451Z,12.53
2023-03-22T06:56:22.898Z,14.17
2023-03-22T06:58:52.672Z,12.33
2023-03-22T07:01:23.735Z,13.60
2023-03-22T07:03:52.527Z,12.27
2023-03-22T07:06:21.017Z,14.20
2023-03-22T07:08:50.906Z,11.70
2023-03-22T07:11:20.573Z,15.27
2023-03-22T07:13:48.985Z,13.30
2023-03-22T07:16:19.851Z,14.20
2023-03-22T07:18:49.074Z,12.93
2023-03-22T07:21:17.696Z,11.40
2023-03-22T07:23:46.137Z,16.90
2023-03-22T07:26:14.634Z,9.75
2023-03-22T07:28:45.329Z,9.27
2023-03-22T07:31:14.597Z,12.07
2023-03-22T07:33:43.214Z,9.20
2023-03-22T07:36:12.438Z,12.63
2023-03-22T07:38:41.183Z,10.80
2023-03-22T07:41:09.558Z,10.20
2023-03-22T07:43:52.433Z,14.50
2023-03-22T07:46:22.645Z,8.80
2023-03-22T07:48:51.313Z,10.60
2023-03-22T07:51:20.045Z,9.10
2023-03-22T07:53:48.476Z,9.50
2023-03-22T07:56:16.889Z,8.83
2023-03-22T07:58:45.315Z,10.63
2023-03-22T08:01:13.749Z,12.83
2023-03-22T08:03:42.239Z,12.07
2023-03-22T08:06:11.085Z,11.00
2023-03-22T08:08:40.036Z,9.20
2023-03-22T08:11:09.223Z,8.80
2023-03-22T08:13:38.708Z,10.63
2023-03-22T08:16:07.872Z,10.03
2023-03-22T08:18:36.586Z,9.27
2023-03-22T08:21:05.520Z,13.87
2023-03-22T08:23:41.526Z,10.23
2023-03-22T08:26:11.880Z,10.53
2023-03-22T08:28:40.254Z,13.33
2023-03-22T08:31:15.261Z,9.97
2023-03-22T08:33:45.088Z,12.17
2023-03-22T08:36:19.761Z,12.17
2023-03-22T08:38:48.192Z,10.53
2023-03-22T08:41:19.880Z,12.33
2023-03-22T08:43:48.259Z,9.10
2023-03-22T08:46:16.837Z,9.77
2023-03-22T08:48:51.205Z,10.43
2023-03-22T08:51:24.329Z,10.63
2023-03-22T08:53:52.879Z,9.30
2023-03-22T08:56:21.810Z,10.43
2023-03-22T08:58:50.182Z,10.57
2023-03-22T09:01:21.750Z,12.50
2023-03-22T09:03:50.250Z,9.87
2023-03-22T09:06:18.625Z,12.03
2023-03-22T09:08:47.859Z,10.63
2023-03-22T09:11:17.882Z,14.47
2023-03-22T09:13:46.860Z,9.83
2023-03-22T09:16:15.382Z,9.67
2023-03-22T09:18:44.540Z,10.17
2023-03-22T09:21:13.825Z,10.50
2023-03-22T09:23:43.288Z,10.83
2023-03-22T09:26:11.901Z,11.50
2023-03-22T09:28:40.398Z,8.67
2023-03-22T09:31:11.339Z,9.27
2023-03-22T09:33:42.298Z,8.87
2023-03-22T09:36:15.504Z,10.80
2023-03-22T09:38:44.158Z,9.70
2023-03-22T09:41:28.091Z,8.80
2023-03-22T09:44:03.796Z,9.80
2023-03-22T09:46:38.464Z,9.87
2023-03-22T09:49:13.883Z,8.27
2023-03-22T09:51:54.481Z,9.90
2023-03-22T09:54:35.830Z,10.17
2023-03-22T09:57:12.225Z,8.10
2023-03-22T09:59:48.975Z,11.13
2023-03-22T10:02:43.621Z,11.97
2023-03-22T10:05:18.160Z,9.60
2023-03-22T10:08:14.480Z,10.50
2023-03-22T10:10:43.918Z,13.77
2023-03-22T10:13:41.550Z,9.47
2023-03-22T10:16:17.766Z,13.47
2023-03-22T10:18:51.991Z,11.37
2023-03-22T10:21:21.722Z,11.80
2023-03-22T10:23:58.706Z,10.80
2023-03-22T10:26:35.631Z,9.75
2023-03-22T10:29:08.160Z,9.90
2023-03-22T10:31:36.782Z,10.17
2023-03-22T10:34:24.929Z,12.20
2023-03-22T10:36:54.216Z,10.53
2023-03-22T10:39:38.469Z,12.73
2023-03-22T10:42:13.561Z,10.83
2023-03-22T10:45:04.324Z,14.13
2023-03-22T10:48:00.862Z,11.97
2023-03-22T10:50:37.354Z,12.23
2023-03-22T10:53:39.816Z,9.50
2023-03-22T10:56:17.638Z,11.00
2023-03-22T10:58:46.169Z,9.20
2023-03-22T11:01:18.007Z,10.03
2023-03-22T11:03:51.327Z,12.47
2023-03-22T11:06:21.936Z,11.67
2023-03-22T11:08:52.164Z,14.87
2023-03-22T11:11:39.512Z,15.50
2023-03-22T11:14:37.890Z,14.10
2023-03-22T11:17:17.998Z,19.13
2023-03-22T11:20:15.335Z,16.20
2023-03-22T11:22:46.643Z,20.60
2023-03-22T11:25:23.939Z,17.30
2023-03-22T11:27:55.743Z,18.88
2023-03-22T11:30:27.795Z,20.80
2023-03-22T11:33:22.097Z,20.42
2023-03-22T11:35:57.403Z,17.67
2023-03-22T11:38:31.797Z,15.55
2023-03-22T11:41:12.266Z,15.32
2023-03-22T11:43:45.129Z,15.47
2023-03-22T11:46:13.924Z,15.10
2023-03-22T11:48:43.368Z,13.23
2023-03-22T11:51:19.596Z,14.03
2023-03-22T11:53:49.856Z,12.87
2023-03-22T11:56:23.117Z,17.50
2023-03-22T11:59:06.600Z,15.93
2023-03-22T12:01:38.004Z,16.70
2023-03-22T12:04:16.276Z,16.45
2023-03-22T12:06:45.386Z,17.23
2023-03-22T12:09:45.903Z,12.77
2023-03-22T12:12:24.619Z,12.07
2023-03-22T12:15:06.563Z,13.63
2023-03-22T12:18:08.252Z,12.75
2023-03-22T12:20:44.153Z,17.27
2023-03-22T12:23:24.804Z,13.97
2023-03-22T12:26:03.596Z,12.40
2023-03-22T12:28:44.731Z,14.82
2023-03-22T12:31:28.455Z,13.20
2023-03-22T12:34:00.630Z,11.52
2023-03-22T12:36:43.745Z,16.45
2023-03-22T12:39:37.374Z,12.45
2023-03-22T12:42:14.578Z,14.30
2023-03-22T12:44:55.557Z,19.73
2023-03-22T12:47:52.305Z,18.83
2023-03-22T12:50:35.690Z,17.20
2023-03-22T12:53:05.307Z,15.55
2023-03-22T12:55:35.243Z,17.42
2023-03-22T12:58:06.911Z,23.50
2023-03-22T13:00:52.328Z,23.25
2023-03-22T13:03:30.631Z,19.27
2023-03-22T13:06:08.414Z,23.85
2023-03-22T13:09:17.669Z,14.63
2023-03-22T13:12:10.063Z,26.33
2023-03-22T13:14:50.879Z,27.88
2023-03-22T13:17:25.502Z,25.88
2023-03-22T13:20:12.354Z,27.92
2023-03-22T13:22:43.739Z,17.85
2023-03-22T13:25:35.485Z,23.20
2023-03-22T13:28:21.761Z,26.58
2023-03-22T13:30:55.821Z,26.85
2023-03-22T13:33:36.068Z,28.50
2023-03-22T13:36:09.659Z,26.52
2023-03-22T13:38:58.944Z,21.33
2023-03-22T13:41:32.671Z,24.98
2023-03-22T13:44:04.320Z,29.80
2023-03-22T13:46:39.788Z,31.45
2023-03-22T13:49:27.209Z,27.67
2023-03-22T13:51:58.350Z,20.55
2023-03-22T13:54:35.450Z,21.08
2023-03-22T13:57:04.682Z,30.83
2023-03-22T14:00:11.300Z,21.83
2023-03-22T14:02:44.227Z,22.77
2023-03-22T14:05:24.452Z,24.80
2023-03-22T14:07:59.482Z,23.02
2023-03-22T14:10:48.491Z,24.13
2023-03-22T14:13:21.316Z,23.88
2023-03-22T14:15:58.923Z,27.75
2023-03-22T14:18:37.480Z,25.00
2023-03-22T14:21:17.753Z,19.48
